createdAt,value
2023-05-11T00:00:09.950Z,97715.28
2023-05-11T00:02:43.270Z,97722.03
2023-05-11T00:05:16.487Z,97716.75
2023-05-11T00:07:49.492Z,97710.75
2023-05-11T00:10:24.186Z,97705.56
2023-05-11T00:12:57.254Z,97705.47
2023-05-11T00:15:30.390Z,97707.53
2023-05-11T00:18:03.456Z,97711.63
2023-05-11T00:20:36.667Z,97704.59
2023-05-11T00:23:09.626Z,97716.41
2023-05-11T00:25:43.988Z,97711.06
2023-05-11T00:28:16.964Z,97700.66
2023-05-11T00:30:49.982Z,97703.13
2023-05-11T00:33:23.003Z,97705.56
2023-05-11T00:35:56.004Z,97703.59
2023-05-11T00:38:28.968Z,97701.03
2023-05-11T00:41:03.628Z,97699.38
2023-05-11T00:43:36.609Z,97706.97
2023-05-11T00:46:09.696Z,97700.88
2023-05-11T00:48:42.922Z,97695.03
2023-05-11T00:51:16.147Z,97704.25
2023-05-11T00:53:49.867Z,97704.16
2023-05-11T00:56:24.497Z,97706.53
2023-05-11T00:58:57.507Z,97700.59
2023-05-11T01:01:30.883Z,97700.69
2023-05-11T01:04:04.336Z,97704.78
2023-05-11T01:06:46.882Z,97705.50
2023-05-11T01:09:35.932Z,97701.41
2023-05-11T01:12:18.508Z,97705.56
2023-05-11T01:15:01.150Z,97710.06
2023-05-11T01:17:45.997Z,97706.59
2023-05-11T01:20:24.984Z,97704.16
2023-05-11T01:23:52.121Z,97697.44
2023-05-11T01:26:40.351Z,97698.84
2023-05-11T01:30:17.385Z,97697.09
2023-05-11T01:32:50.687Z,97696.44
2023-05-11T01:35:26.878Z,97698.91
2023-05-11T01:38:02.418Z,97696.44
2023-05-11T01:40:39.468Z,97698.19
2023-05-11T01:43:19.057Z,97700.75
2023-05-11T01:45:55.053Z,97693.06
2023-05-11T01:48:32.889Z,97699.19
2023-05-11T01:51:06.978Z,97705.94
2023-05-11T01:53:42.039Z,97698.13
2023-05-11T01:56:16.452Z,97700.59
2023-05-11T01:58:52.501Z,97703.88
2023-05-11T02:01:28.725Z,97704.69
2023-05-11T02:04:05.139Z,97700.59
2023-05-11T02:06:40.505Z,97707.41
2023-05-11T02:09:17.450Z,97699.94
2023-05-11T02:11:51.383Z,97698.31
2023-05-11T02:14:26.904Z,97696.44
2023-05-11T02:17:02.166Z,97696.78
2023-05-11T02:19:36.918Z,97701.69
2023-05-11T02:22:11.146Z,97701.25
2023-05-11T02:24:44.458Z,97706.88
2023-05-11T02:27:17.472Z,97696.63
2023-05-11T02:29:50.570Z,97690.59
2023-05-11T02:32:28.427Z,97696.72
2023-05-11T02:35:06.149Z,97695.72
2023-05-11T02:37:44.519Z,97696.13
2023-05-11T02:40:20.497Z,97700.00
2023-05-11T02:43:00.200Z,97694.16
2023-05-11T02:45:35.354Z,97697.66
2023-05-11T02:48:13.973Z,97696.88
2023-05-11T02:50:47.918Z,97700.34
2023-05-11T02:53:22.076Z,97695.75
2023-05-11T02:55:56.344Z,97692.31
2023-05-11T02:58:30.331Z,97688.88
2023-05-11T03:01:07.738Z,97696.72
2023-05-11T03:03:42.629Z,97689.75
2023-05-11T03:06:15.816Z,97689.53
2023-05-11T03:08:49.358Z,97690.50
2023-05-11T03:11:23.201Z,97687.06
2023-05-11T03:13:56.354Z,97686.31
2023-05-11T03:16:30.096Z,97685.41
2023-05-11T03:19:06.646Z,97686.16
2023-05-11T03:21:41.077Z,97688.56
2023-05-11T03:24:15.025Z,97687.78
2023-05-11T03:26:49.028Z,97680.88
2023-05-11T03:29:24.057Z,97686.00
2023-05-11T03:31:57.115Z,97684.50
2023-05-11T03:34:31.588Z,97683.44
2023-05-11T03:37:07.035Z,97688.41
2023-05-11T03:39:40.600Z,97689.22
2023-05-11T03:42:15.614Z,97680.81
2023-05-11T03:44:52.938Z,97687.63
2023-05-11T03:47:28.467Z,97684.09
2023-05-11T03:50:03.843Z,97680.09
2023-05-11T03:52:37.326Z,97683.47
2023-05-11T03:55:11.419Z,97678.41
2023-05-11T03:57:44.793Z,97680.25
2023-05-11T04:00:18.820Z,97677.06
2023-05-11T04:02:53.357Z,97677.69
2023-05-11T04:05:27.899Z,97679.97
2023-05-11T04:08:01.286Z,97674.03
2023-05-11T04:10:34.370Z,97679.97
2023-05-11T04:13:07.413Z,97673.38
2023-05-11T04:15:40.414Z,97676.81
2023-05-11T04:18:13.422Z,97676.88
2023-05-11T04:20:47.722Z,97678.50
2023-05-11T04:23:20.708Z,97683.38
2023-05-11T04:25:57.077Z,97678.13
2023-05-11T04:28:30.086Z,97679.97
2023-05-11T04:31:03.085Z,97675.81
2023-05-11T04:33:36.144Z,97677.63
2023-05-11T04:36:11.026Z,97679.22
2023-05-11T04:38:44.039Z,97681.22
2023-05-11T04:41:17.342Z,97685.22
2023-05-11T04:43:50.370Z,97681.84
2023-05-11T04:46:23.601Z,97688.75
2023-05-11T04:48:56.634Z,97691.47
2023-05-11T04:51:31.032Z,97686.53
2023-05-11T04:54:04.166Z,97684.75
2023-05-11T04:56:40.497Z,97689.03
2023-05-11T04:59:13.521Z,97692.66
2023-05-11T05:01:46.498Z,97691.13
2023-05-11T05:04:19.608Z,97691.59
2023-05-11T05:06:54.023Z,97693.28
2023-05-11T05:09:27.062Z,97696.59
2023-05-11T05:12:00.062Z,97700.88
2023-05-11T05:14:33.554Z,97690.00
2023-05-11T05:17:07.544Z,97696.97
2023-05-11T05:19:40.614Z,97691.94
2023-05-11T05:22:15.779Z,97693.78
2023-05-11T05:24:48.802Z,97697.34
2023-05-11T05:27:21.773Z,97699.91
2023-05-11T05:29:54.764Z,97697.31
2023-05-11T05:32:27.768Z,97700.72
2023-05-11T05:35:00.857Z,97704.41
2023-05-11T05:37:35.307Z,97713.69
2023-05-11T05:40:10.102Z,97704.19
2023-05-11T05:42:43.107Z,97707.69
2023-05-11T05:45:16.058Z,97705.28
2023-05-11T05:47:49.402Z,97709.59
2023-05-11T05:50:22.770Z,97709.81
2023-05-11T05:52:57.119Z,97704.78
2023-05-11T05:55:30.098Z,97701.56
2023-05-11T05:58:03.054Z,97703.44
2023-05-11T06:00:37.081Z,97712.03
2023-05-11T06:03:10.257Z,97709.53
2023-05-11T06:05:43.457Z,97715.38
2023-05-11T06:08:17.756Z,97713.38
2023-05-11T06:10:50.776Z,97711.50
2023-05-11T06:13:23.792Z,97712.38
2023-05-11T06:15:56.778Z,97711.66
2023-05-11T06:18:29.803Z,97711.66
2023-05-11T06:21:02.776Z,97708.25
2023-05-11T06:23:37.121Z,97719.44
2023-05-11T06:26:10.262Z,97713.56
2023-05-11T06:28:43.287Z,97717.78
2023-05-11T06:31:16.557Z,97714.59
2023-05-11T06:33:49.622Z,97720.34
2023-05-11T06:36:22.593Z,97720.16
2023-05-11T06:38:57.062Z,97715.16
2023-05-11T06:41:30.030Z,97721.09
2023-05-11T06:44:03.001Z,97717.78
2023-05-11T06:46:36.118Z,97718.59
2023-05-11T06:49:09.726Z,97719.44
2023-05-11T06:51:43.054Z,97716.03
2023-05-11T06:54:17.381Z,97708.13
2023-05-11T06:56:50.416Z,97711.47
2023-05-11T06:59:23.396Z,97710.00
2023-05-11T07:01:56.465Z,97713.41
2023-05-11T07:04:29.935Z,97711.34
2023-05-11T07:07:03.535Z,97713.41
2023-05-11T07:09:38.645Z,97716.03
2023-05-11T07:12:12.499Z,97721.16
2023-05-11T07:14:45.496Z,97716.81
2023-05-11T07:17:18.471Z,97722.38
2023-05-11T07:19:52.482Z,97722.59
2023-05-11T07:22:25.478Z,97724.44
2023-05-11T07:25:01.645Z,97713.19
2023-05-11T07:27:34.808Z,97721.47
2023-05-11T07:30:09.277Z,97716.44
2023-05-11T07:32:42.377Z,97718.03
2023-05-11T07:35:16.038Z,97718.31
2023-05-11T07:37:49.015Z,97711.97
2023-05-11T07:40:23.362Z,97723.84
2023-05-11T07:42:56.337Z,97713.88
2023-05-11T07:45:29.345Z,97725.06
2023-05-11T07:48:02.344Z,97719.28
2023-05-11T07:50:35.651Z,97719.47
2023-05-11T07:53:08.686Z,97719.28
2023-05-11T07:55:43.194Z,97722.00
2023-05-11T07:58:16.278Z,97720.38
2023-05-11T08:00:49.448Z,97725.53
2023-05-11T08:03:22.742Z,97720.19
2023-05-11T08:05:55.855Z,97716.16
2023-05-11T08:08:30.128Z,97713.44
2023-05-11T08:11:05.875Z,97718.72
2023-05-11T08:13:38.857Z,97712.25
2023-05-11T08:16:11.968Z,97714.50
2023-05-11T08:18:45.499Z,97712.09
2023-05-11T08:21:18.657Z,97712.50
2023-05-11T08:23:51.620Z,97710.91
2023-05-11T08:26:26.199Z,97708.59
2023-05-11T08:28:59.184Z,97710.97
2023-05-11T08:31:32.460Z,97708.72
2023-05-11T08:34:13.817Z,97719.41
2023-05-11T08:36:51.862Z,97711.44
2023-05-11T08:39:45.400Z,97714.50
2023-05-11T08:42:21.263Z,97715.94
2023-05-11T08:44:57.215Z,97715.50
2023-05-11T08:47:30.503Z,97716.84
2023-05-11T08:50:03.856Z,97715.25
2023-05-11T08:52:36.862Z,97716.19
2023-05-11T08:55:11.352Z,97711.44
2023-05-11T08:57:46.597Z,97714.41
2023-05-11T09:00:23.108Z,97714.53
2023-05-11T09:02:57.727Z,97716.84
2023-05-11T09:05:32.815Z,97711.28
2023-05-11T09:08:08.868Z,97718.78
2023-05-11T09:10:42.340Z,97719.72
2023-05-11T09:13:16.890Z,97715.81
2023-05-11T09:15:49.844Z,97717.09
2023-05-11T09:18:22.976Z,97718.19
2023-05-11T09:20:56.128Z,97717.91
2023-05-11T09:23:29.163Z,97714.34
2023-05-11T09:26:02.389Z,97714.00
2023-05-11T09:28:37.265Z,97715.09
2023-05-11T09:31:10.505Z,97706.88
2023-05-11T09:33:43.699Z,97706.00
2023-05-11T09:36:25.463Z,97711.03
2023-05-11T09:39:03.655Z,97704.94
2023-05-11T09:41:37.177Z,97710.19
2023-05-11T09:44:13.756Z,97708.13
2023-05-11T09:46:47.567Z,97700.25
2023-05-11T09:49:20.641Z,97700.78
2023-05-11T09:52:02.413Z,97702.84
2023-05-11T09:54:43.762Z,97708.06
2023-05-11T09:57:25.990Z,97702.91
2023-05-11T10:00:01.704Z,97712.00
2023-05-11T10:02:35.116Z,97709.47
2023-05-11T10:05:14.352Z,97710.09
2023-05-11T10:07:59.557Z,97703.34
2023-05-11T10:10:34.696Z,97705.19
2023-05-11T10:13:08.059Z,97696.66
2023-05-11T10:15:44.998Z,97704.78
2023-05-11T10:18:20.220Z,97705.78
2023-05-11T10:20:54.370Z,97709.19
2023-05-11T10:23:27.726Z,97704.44
2023-05-11T10:26:02.939Z,97698.00
2023-05-11T10:28:37.210Z,97699.53
2023-05-11T10:31:12.597Z,97700.84
2023-05-11T10:33:47.851Z,97703.59
2023-05-11T10:36:24.465Z,97698.69
2023-05-11T10:38:57.566Z,97699.63
2023-05-11T10:41:50.213Z,97691.56
2023-05-11T10:44:57.218Z,97688.78
2023-05-11T10:48:26.214Z,97689.56
2023-05-11T10:51:19.909Z,97687.72
2023-05-11T10:54:17.991Z,97686.94
2023-05-11T10:57:13.782Z,97689.47
2023-05-11T11:00:16.439Z,97684.28
2023-05-11T11:02:50.913Z,97683.25
2023-05-11T11:05:34.758Z,97674.88
2023-05-11T11:08:09.648Z,97683.38
2023-05-11T11:10:46.155Z,97686.06
2023-05-11T11:13:22.844Z,97678.34
2023-05-11T11:16:14.734Z,97688.16
2023-05-11T11:18:50.794Z,97676.50
2023-05-11T11:21:44.050Z,97680.44
2023-05-11T11:24:45.028Z,97679.50
2023-05-11T11:27:18.008Z,97684.66
2023-05-11T11:30:18.899Z,97689.41
2023-05-11T11:32:53.467Z,97678.56
2023-05-11T11:35:49.881Z,97673.84
2023-05-11T11:38:22.991Z,97674.81
2023-05-11T11:40:56.034Z,97673.19
2023-05-11T11:43:44.873Z,97674.69
2023-05-11T11:46:28.733Z,97679.44
2023-05-11T11:49:09.184Z,97675.41
2023-05-11T11:51:43.514Z,97678.75
2023-05-11T11:54:39.804Z,97676.56
2023-05-11T11:57:46.596Z,97675.16
2023-05-11T12:00:22.733Z,97676.19
2023-05-11T12:02:56.864Z,97680.06
2023-05-11T12:05:31.531Z,97675.03
2023-05-11T12:08:08.002Z,97676.50
2023-05-11T12:10:41.002Z,97675.56
2023-05-11T12:13:14.782Z,97672.53
2023-05-11T12:15:47.912Z,97667.63
2023-05-11T12:18:24.400Z,97670.59
2023-05-11T12:20:57.504Z,97672.66
2023-05-11T12:23:32.496Z,97674.03
2023-05-11T12:26:06.950Z,97675.72
2023-05-11T12:28:40.031Z,97664.31
2023-05-11T12:31:13.207Z,97661.16
2023-05-11T12:33:47.072Z,97672.19
2023-05-11T12:36:20.338Z,97673.28
2023-05-11T12:38:55.086Z,97666.72
2023-05-11T12:41:28.366Z,97667.59
2023-05-11T12:44:01.605Z,97665.13
2023-05-11T12:46:35.073Z,97664.69
2023-05-11T12:49:08.551Z,97658.78
2023-05-11T12:51:53.594Z,97651.56
2023-05-11T12:54:38.018Z,97652.47
2023-05-11T12:57:25.003Z,97655.25
2023-05-11T13:00:13.796Z,97652.16
2023-05-11T13:02:51.099Z,97647.13
2023-05-11T13:05:26.994Z,97649.94
2023-05-11T13:08:01.032Z,97646.28
2023-05-11T13:10:35.407Z,97645.63
2023-05-11T13:13:08.481Z,97643.09
2023-05-11T13:15:52.792Z,97642.56
2023-05-11T13:18:25.884Z,97645.03
2023-05-11T13:21:09.469Z,97634.19
2023-05-11T13:23:42.453Z,97629.88
2023-05-11T13:26:24.081Z,97634.34
2023-05-11T13:29:09.595Z,97630.56
2023-05-11T13:31:45.075Z,97619.31
2023-05-11T13:34:18.534Z,97623.16
2023-05-11T13:36:51.877Z,97617.25
2023-05-11T13:39:24.800Z,97618.69
2023-05-11T13:41:59.093Z,97614.34
2023-05-11T13:44:32.040Z,97614.25
2023-05-11T13:47:05.504Z,97616.03
2023-05-11T13:49:38.574Z,97608.38
2023-05-11T13:52:11.972Z,97616.56
2023-05-11T13:54:44.922Z,97613.34
2023-05-11T13:57:19.450Z,97608.13
2023-05-11T13:59:52.465Z,97607.50
2023-05-11T14:02:25.591Z,97610.94
2023-05-11T14:04:58.598Z,97610.84
2023-05-11T14:07:45.593Z,97608.31
2023-05-11T14:10:21.074Z,97600.84
2023-05-11T14:12:55.460Z,97609.53
2023-05-11T14:15:28.669Z,97602.88
2023-05-11T14:18:03.604Z,97602.88
2023-05-11T14:20:38.580Z,97597.13
2023-05-11T14:23:11.536Z,97596.59
2023-05-11T14:25:44.554Z,97598.59
2023-05-11T14:28:18.853Z,97589.94
2023-05-11T14:30:51.912Z,97598.81
2023-05-11T14:33:25.493Z,97598.06
2023-05-11T14:35:58.632Z,97593.47
2023-05-11T14:38:31.896Z,97597.63
2023-05-11T14:41:05.269Z,97596.53
2023-05-11T14:43:42.383Z,97589.56
2023-05-11T14:46:15.431Z,97588.75
2023-05-11T14:48:48.493Z,97587.81
2023-05-11T14:51:21.474Z,97590.28
2023-05-11T14:53:54.576Z,97587.94
2023-05-11T14:56:27.613Z,97589.34
2023-05-11T14:59:01.983Z,97587.78
2023-05-11T15:01:35.008Z,97585.97
2023-05-11T15:04:08.049Z,97582.53
2023-05-11T15:06:41.058Z,97583.78
2023-05-11T15:09:14.065Z,97585.06
2023-05-11T15:11:47.061Z,97586.50
2023-05-11T15:14:21.357Z,97586.75
2023-05-11T15:16:54.764Z,97586.00
2023-05-11T15:19:27.809Z,97591.16
2023-05-11T15:22:00.802Z,97581.63
2023-05-11T15:24:33.841Z,97581.50
2023-05-11T15:27:07.637Z,97585.13
2023-05-11T15:29:42.019Z,97588.19
2023-05-11T15:32:17.167Z,97587.53
2023-05-11T15:34:59.328Z,97591.34
2023-05-11T15:37:33.147Z,97593.78
2023-05-11T15:40:08.518Z,97584.50
2023-05-11T15:42:41.783Z,97589.16
2023-05-11T15:45:16.473Z,97589.91
2023-05-11T15:47:49.621Z,97594.03
2023-05-11T15:50:22.910Z,97598.31
2023-05-11T15:52:56.541Z,97596.09
2023-05-11T15:55:29.797Z,97589.56
2023-05-11T15:58:02.760Z,97592.59
2023-05-11T16:00:37.480Z,97598.56
2023-05-11T16:03:10.556Z,97590.16
2023-05-11T16:05:44.490Z,97593.84
2023-05-11T16:08:17.567Z,97591.72
2023-05-11T16:10:51.682Z,97596.34
2023-05-11T16:13:24.929Z,97594.91
2023-05-11T16:16:00.001Z,97605.00
2023-05-11T16:18:33.042Z,97600.97
2023-05-11T16:21:06.222Z,97594.06
2023-05-11T16:23:39.171Z,97595.84
2023-05-11T16:26:12.191Z,97600.81
2023-05-11T16:28:45.254Z,97599.03
2023-05-11T16:31:19.633Z,97602.47
2023-05-11T16:33:52.643Z,97596.25
2023-05-11T16:36:25.774Z,97603.94
2023-05-11T16:38:58.842Z,97598.44
2023-05-11T16:41:31.867Z,97596.59
2023-05-11T16:44:05.081Z,97595.16
2023-05-11T16:46:39.478Z,97601.81
2023-05-11T16:49:12.494Z,97596.69
2023-05-11T16:51:45.454Z,97600.09
2023-05-11T16:54:18.440Z,97603.34
2023-05-11T16:56:51.407Z,97594.25
2023-05-11T16:59:24.401Z,97597.22
2023-05-11T17:01:58.790Z,97601.66
2023-05-11T17:04:32.064Z,97600.28
2023-05-11T17:07:05.449Z,97598.16
2023-05-11T17:09:38.523Z,97602.00
2023-05-11T17:12:12.036Z,97604.81
2023-05-11T17:14:44.979Z,97599.63
2023-05-11T17:17:19.342Z,97596.00
2023-05-11T17:19:52.655Z,97601.13
2023-05-11T17:22:25.895Z,97595.66
2023-05-11T17:25:00.129Z,97596.25
2023-05-11T17:27:33.434Z,97594.91
2023-05-11T17:30:08.602Z,97606.50
2023-05-11T17:32:43.109Z,97593.03
2023-05-11T17:35:16.444Z,97602.25
2023-05-11T17:37:49.412Z,97599.78
2023-05-11T17:40:22.493Z,97599.50
2023-05-11T17:42:55.495Z,97602.47
2023-05-11T17:45:30.358Z,97598.03
2023-05-11T17:48:05.037Z,97604.22
2023-05-11T17:50:38.238Z,97602.69
2023-05-11T17:53:11.226Z,97600.44
2023-05-11T17:55:44.590Z,97599.09
2023-05-11T17:58:17.572Z,97606.91
2023-05-11T18:00:50.531Z,97609.84
2023-05-11T18:03:24.956Z,97607.38
2023-05-11T18:05:57.979Z,97613.22
2023-05-11T18:08:30.945Z,97604.72
2023-05-11T18:11:04.562Z,97611.50
2023-05-11T18:13:37.550Z,97616.63
2023-05-11T18:16:10.554Z,97612.22
2023-05-11T18:18:45.235Z,97616.31
2023-05-11T18:21:19.017Z,97619.69
2023-05-11T18:23:52.008Z,97621.22
2023-05-11T18:26:26.665Z,97618.88
2023-05-11T18:29:01.821Z,97621.44
2023-05-11T18:31:34.921Z,97623.22
2023-05-11T18:34:09.214Z,97620.09
2023-05-11T18:36:42.148Z,97622.38
2023-05-11T18:39:15.883Z,97627.38
2023-05-11T18:41:48.853Z,97633.97
2023-05-11T18:44:21.776Z,97630.63
2023-05-11T18:46:54.870Z,97624.25
2023-05-11T18:49:29.377Z,97626.00
2023-05-11T18:52:03.825Z,97630.00
2023-05-11T18:54:36.812Z,97632.44
2023-05-11T18:57:11.293Z,97635.97
2023-05-11T18:59:44.490Z,97637.38
2023-05-11T19:02:17.531Z,97637.28
2023-05-11T19:04:51.849Z,97639.03
2023-05-11T19:07:24.885Z,97645.50
2023-05-11T19:09:57.866Z,97633.31
2023-05-11T19:12:30.826Z,97644.69
2023-05-11T19:15:04.372Z,97643.00
2023-05-11T19:17:38.309Z,97640.50
2023-05-11T19:20:13.549Z,97640.66
2023-05-11T19:22:46.975Z,97647.38
2023-05-11T19:25:20.011Z,97640.56
2023-05-11T19:27:53.213Z,97641.38
2023-05-11T19:30:26.415Z,97645.63
2023-05-11T19:32:59.515Z,97639.59
2023-05-11T19:35:33.928Z,97636.16
2023-05-11T19:38:07.356Z,97644.81
2023-05-11T19:40:45.901Z,97640.50
2023-05-11T19:43:19.236Z,97642.25
2023-05-11T19:45:52.199Z,97641.44
2023-05-11T19:48:25.482Z,97646.41
2023-05-11T19:50:59.785Z,97643.72
2023-05-11T19:53:33.179Z,97648.97
2023-05-11T19:56:08.518Z,97654.06
2023-05-11T19:58:41.726Z,97657.03
2023-05-11T20:01:15.151Z,97653.53
2023-05-11T20:03:48.336Z,97650.97
2023-05-11T20:06:22.856Z,97651.34
2023-05-11T20:08:56.496Z,97655.59
2023-05-11T20:11:31.121Z,97653.03
2023-05-11T20:14:06.137Z,97648.09
2023-05-11T20:16:39.352Z,97645.50
2023-05-11T20:19:12.485Z,97647.09
2023-05-11T20:21:46.923Z,97654.69
2023-05-11T20:24:20.157Z,97653.19
2023-05-11T20:26:53.269Z,97652.34
2023-05-11T20:29:26.377Z,97645.34
2023-05-11T20:31:59.495Z,97640.88
2023-05-11T20:34:32.707Z,97647.53
2023-05-11T20:37:07.433Z,97639.53
2023-05-11T20:39:40.400Z,97644.69
2023-05-11T20:42:13.540Z,97638.47
2023-05-11T20:44:49.701Z,97635.03
2023-05-11T20:47:22.937Z,97641.03
2023-05-11T20:49:55.857Z,97634.31
2023-05-11T20:52:30.180Z,97637.69
2023-05-11T20:55:03.325Z,97642.66
2023-05-11T20:57:36.269Z,97642.50
2023-05-11T21:00:11.234Z,97639.13
2023-05-11T21:02:45.764Z,97633.06
2023-05-11T21:05:19.188Z,97637.72
2023-05-11T21:07:53.508Z,97629.91
2023-05-11T21:10:26.433Z,97630.72
2023-05-11T21:13:00.991Z,97631.78
2023-05-11T21:15:34.019Z,97635.84
2023-05-11T21:18:07.683Z,97629.75
2023-05-11T21:20:40.698Z,97632.94
2023-05-11T21:23:15.132Z,97628.63
2023-05-11T21:25:53.456Z,97631.44
2023-05-11T21:28:26.998Z,97637.34
2023-05-11T21:31:00.287Z,97634.78
2023-05-11T21:33:33.409Z,97645.25
2023-05-11T21:36:08.392Z,97636.84
2023-05-11T21:38:42.853Z,97633.56
2023-05-11T21:41:16.780Z,97638.84
2023-05-11T21:43:50.423Z,97644.94
2023-05-11T21:46:23.427Z,97639.63
2023-05-11T21:48:56.716Z,97643.00
2023-05-11T21:51:29.660Z,97643.81
2023-05-11T21:54:04.075Z,97640.44
2023-05-11T21:56:37.111Z,97646.44
2023-05-11T21:59:10.078Z,97647.47
2023-05-11T22:01:43.058Z,97645.72
2023-05-11T22:04:16.067Z,97643.25
2023-05-11T22:06:49.121Z,97643.97
2023-05-11T22:09:23.484Z,97648.34
2023-05-11T22:11:56.844Z,97647.16
2023-05-11T22:14:30.481Z,97643.19
2023-05-11T22:17:03.477Z,97636.63
2023-05-11T22:19:36.411Z,97640.97
2023-05-11T22:22:09.376Z,97645.25
2023-05-11T22:24:43.673Z,97644.44
2023-05-11T22:27:16.604Z,97648.78
2023-05-11T22:29:49.573Z,97646.50
2023-05-11T22:32:22.703Z,97650.41
2023-05-11T22:35:00.169Z,97647.69
2023-05-11T22:37:33.515Z,97647.41
2023-05-11T22:40:09.976Z,97650.47
2023-05-11T22:42:43.368Z,97657.03
2023-05-11T22:45:16.470Z,97656.72
2023-05-11T22:47:49.485Z,97654.22
2023-05-11T22:50:22.579Z,97648.69
2023-05-11T22:52:56.149Z,97648.13
2023-05-11T22:55:30.458Z,97652.81
2023-05-11T22:58:03.464Z,97650.34
2023-05-11T23:00:36.923Z,97653.06
2023-05-11T23:03:10.303Z,97650.56
2023-05-11T23:05:43.360Z,97653.94
2023-05-11T23:08:16.560Z,97647.38
2023-05-11T23:10:51.942Z,97645.84
2023-05-11T23:13:25.154Z,97654.47
2023-05-11T23:15:58.097Z,97641.59
2023-05-11T23:18:31.317Z,97649.94
2023-05-11T23:21:04.930Z,97648.25
2023-05-11T23:23:37.889Z,97644.00
2023-05-11T23:26:12.700Z,97647.44
2023-05-11T23:28:45.986Z,97643.38
2023-05-11T23:31:18.953Z,97641.88
2023-05-11T23:33:51.971Z,97638.53
2023-05-11T23:36:24.939Z,97638.53
2023-05-11T23:38:57.871Z,97641.09
2023-05-11T23:41:32.367Z,97641.00
2023-05-11T23:44:05.564Z,97628.16
2023-05-11T23:46:38.562Z,97631.59
2023-05-11T23:49:11.568Z,97630.72
2023-05-11T23:51:44.516Z,97632.22
2023-05-11T23:54:17.520Z,97619.38
2023-05-11T23:56:51.776Z,97614.25
2023-05-11T23:59:24.777Z,97611.84
